Time;durP1;ratioP1;P1;durP2;ratioP2;P2;SDS_P1;SDS_P2;PMS_P1;PMS_P2;Temp;Humidity;BMP_temperature;BMP_pressure;BME280_temperature;BME280_humidity;BME280_pressure;Samples;Min_cycle;Max_cycle;Signal;HPM_P1;HPM_P2
2022/11/04 00:01:23;;;;;;;17.20;10.60;;;;;;;7.60;75.56;96254.77;105258;1279;22487;-78
2022/11/04 00:03:55;;;;;;;13.20;9.70;;;;;;;7.58;75.85;96251.91;105249;1282;22463;-78
2022/11/04 00:06:27;;;;;;;16.30;9.60;;;;;;;7.56;75.88;96252.39;105254;1288;22507;-78
2022/11/04 00:08:59;;;;;;;13.80;9.50;;;;;;;7.59;76.03;96252.49;105121;1288;22490;-78
2022/11/04 00:14:19;;;;;;;13.50;9.30;;;;;;;7.66;76.15;96247.15;105162;1303;22507;-78
2022/11/04 00:33:24;;;;;;;13.80;8.70;;;;;;;7.87;75.83;96225.34;105214;1283;22461;-78
2022/11/04 00:33:55;;;;;;;12.20;7.70;;;;;;;7.89;75.71;96222.33;105211;1295;22459;-78
2022/11/04 00:36:26;;;;;;;11.00;8.00;;;;;;;7.89;75.65;96216.05;105096;1303;185139;-78
2022/11/04 00:38:57;;;;;;;13.90;8.50;;;;;;;7.91;75.64;96210.88;105222;1289;26963;-78
2022/11/04 00:41:29;;;;;;;12.40;7.90;;;;;;;7.92;75.60;96208.11;105285;1300;22495;-78
2022/11/04 00:44:02;;;;;;;12.40;7.60;;;;;;;7.93;75.40;96204.16;105331;1275;22460;-78
2022/11/04 00:46:35;;;;;;;11.30;8.40;;;;;;;7.89;75.36;96197.05;105301;1302;22456;-78
2022/11/04 00:49:06;;;;;;;13.70;8.60;;;;;;;7.85;75.46;96190.55;105248;1299;22524;-78
2022/11/04 00:51:37;;;;;;;12.90;8.40;;;;;;;7.83;75.61;96182.29;105272;1288;22449;-78
2022/11/04 00:54:08;;;;;;;12.20;8.40;;;;;;;7.85;75.59;96177.79;105292;1288;22490;-78
2022/11/04 00:56:41;;;;;;;10.00;7.60;;;;;;;7.85;75.71;96173.08;105263;1288;25629;-78
2022/11/04 00:59:12;;;;;;;10.80;7.40;;;;;;;7.84;75.40;96171.67;105231;1303;22568;-78
2022/11/04 01:01:43;;;;;;;12.20;7.90;;;;;;;7.78;75.41;96169.70;105286;1284;22458;-78
2022/11/04 01:04:14;;;;;;;12.90;8.60;;;;;;;7.77;75.55;96173.51;105284;1303;22455;-78
2022/11/04 01:06:45;;;;;;;14.90;8.80;;;;;;;7.71;75.57;96169.71;105277;1303;24252;-78
2022/11/04 01:09:19;;;;;;;13.50;8.70;;;;;;;7.66;75.74;96162.73;105124;1303;22471;-78
2022/11/04 01:11:50;;;;;;;12.80;8.30;;;;;;;7.60;75.73;96158.48;105152;1288;23806;-78
2022/11/04 01:14:22;;;;;;;13.30;8.60;;;;;;;7.63;75.88;96146.13;105187;1303;26464;-78
2022/11/04 01:16:53;;;;;;;11.80;8.90;;;;;;;7.66;75.93;96140.09;105161;1288;23932;-78
2022/11/04 01:19:24;;;;;;;12.60;8.30;;;;;;;7.67;76.13;96141.36;105108;1296;22488;-78
2022/11/04 01:21:55;;;;;;;11.80;7.90;;;;;;;7.67;76.19;96142.63;105178;1303;22491;-78
2022/11/04 01:24:26;;;;;;;13.10;7.80;;;;;;;7.69;76.18;96136.22;105200;1303;22573;-78
2022/11/04 01:26:57;;;;;;;11.50;7.90;;;;;;;7.70;76.27;96135.69;105180;1303;22472;-78
2022/11/04 01:29:28;;;;;;;11.80;7.90;;;;;;;7.73;76.23;96132.02;105262;1291;22789;-78
2022/11/04 01:31:59;;;;;;;11.60;8.00;;;;;;;7.77;76.25;96128.60;105333;1284;22488;-78
2022/11/04 01:34:31;;;;;;;8.90;7.00;;;;;;;7.69;76.24;96124.66;105326;1287;22474;-78
2022/11/04 01:37:02;;;;;;;11.60;7.40;;;;;;;7.64;76.32;96120.11;105319;1302;23015;-78
2022/11/04 01:39:33;;;;;;;11.20;6.80;;;;;;;7.63;76.41;96115.48;105314;1303;34352;-78
2022/11/04 01:42:04;;;;;;;10.30;6.90;;;;;;;7.65;76.40;96109.97;105318;1303;22473;-78
2022/11/04 01:44:54;;;;;;;11.70;7.80;;;;;;;7.70;76.46;96107.72;105322;1303;22461;-78
2022/11/04 01:47:30;;;;;;;12.20;7.80;;;;;;;7.67;76.55;96103.41;105335;1289;22541;-78
2022/11/04 01:50:07;;;;;;;10.90;7.70;;;;;;;7.56;76.66;96103.41;105330;1286;24483;-78
2022/11/04 01:52:44;;;;;;;13.30;7.10;;;;;;;7.44;76.80;96104.77;105327;1303;22517;-78
2022/11/04 01:55:17;;;;;;;12.70;8.00;;;;;;;7.45;77.09;96103.08;105287;1303;22519;-78
2022/11/04 01:57:51;;;;;;;10.10;7.00;;;;;;;7.43;77.14;96101.52;105281;1279;22459;-78
2022/11/04 02:00:22;;;;;;;12.30;8.00;;;;;;;7.42;77.29;96098.04;105292;1287;22466;-78
2022/11/04 02:02:59;;;;;;;12.40;7.10;;;;;;;7.37;77.44;96091.10;105283;1296;22531;-78
2022/11/04 02:05:31;;;;;;;10.00;7.10;;;;;;;7.27;77.58;96097.30;105322;1303;24456;-78
2022/11/04 02:08:05;;;;;;;9.90;7.00;;;;;;;7.19;77.73;96093.80;105234;1287;24439;-78
2022/11/04 02:10:37;;;;;;;12.30;7.40;;;;;;;7.18;78.02;96086.70;105262;1282;22485;-78
2022/11/04 02:13:08;;;;;;;10.40;7.30;;;;;;;7.24;77.80;96077.08;105258;1301;22459;-78
2022/11/04 02:15:46;;;;;;;10.10;7.50;;;;;;;7.28;77.79;96074.36;105254;1295;22487;-78
2022/11/04 02:18:44;;;;;;;9.80;6.60;;;;;;;7.29;77.76;96074.98;105144;1303;22626;-78
2022/11/04 02:21:41;;;;;;;10.70;6.30;;;;;;;7.29;77.71;96073.36;105141;1297;22459;-78
2022/11/04 02:24:41;;;;;;;7.80;5.80;;;;;;;7.30;77.59;96071.92;105098;1303;22448;-78
2022/11/04 02:27:42;;;;;;;10.30;6.00;;;;;;;7.27;77.64;96072.37;105119;1278;22464;-78
2022/11/04 02:30:16;;;;;;;9.30;5.70;;;;;;;7.19;77.68;96066.77;105087;1287;22487;-78
2022/11/04 02:33:07;;;;;;;8.90;6.30;;;;;;;7.11;77.82;96067.84;105240;1295;22531;-78
2022/11/04 02:35:44;;;;;;;9.60;6.20;;;;;;;7.08;78.06;96061.84;105187;1295;22594;-78
2022/11/04 02:38:25;;;;;;;9.00;6.20;;;;;;;7.09;78.26;96057.84;105234;1293;23397;-78
2022/11/04 02:41:04;;;;;;;10.60;6.10;;;;;;;7.13;78.27;96059.28;105337;1303;25275;-78
2022/11/04 02:43:46;;;;;;;9.20;5.50;;;;;;;7.14;78.22;96059.86;105315;1286;25587;-78
2022/11/04 02:46:24;;;;;;;9.00;5.20;;;;;;;7.09;78.09;96054.56;105354;1303;22479;-78
2022/11/04 02:49:01;;;;;;;8.60;5.10;;;;;;;6.87;78.02;96059.10;105301;1303;22485;-78
2022/11/04 02:51:36;;;;;;;9.00;6.00;;;;;;;6.80;78.42;96059.39;105343;1301;22479;-78
2022/11/04 02:54:12;;;;;;;10.10;5.90;;;;;;;6.83;78.64;96058.54;105348;1302;22574;-78
2022/11/04 02:56:48;;;;;;;8.40;5.60;;;;;;;6.88;78.56;96063.27;105358;1303;23014;-77
2022/11/04 02:59:25;;;;;;;8.10;5.30;;;;;;;6.92;78.57;96056.27;105252;1303;23396;-78
2022/11/04 03:01:59;;;;;;;6.40;4.80;;;;;;;6.93;78.55;96051.83;105354;1303;24278;-78
2022/11/04 03:04:37;;;;;;;7.30;5.10;;;;;;;6.95;78.48;96054.77;105322;1291;22451;-78
2022/11/04 03:07:15;;;;;;;8.40;5.40;;;;;;;6.84;78.64;96054.00;105324;1282;22477;-77
2022/11/04 03:09:51;;;;;;;9.10;5.70;;;;;;;6.68;78.67;96050.46;105172;1296;22532;-78
2022/11/04 03:12:27;;;;;;;7.70;5.20;;;;;;;6.63;79.01;96045.58;105178;1303;22468;-77
2022/11/04 03:15:04;;;;;;;9.60;6.30;;;;;;;6.62;79.25;96042.47;105195;1295;24434;-77
2022/11/04 03:17:42;;;;;;;8.60;5.30;;;;;;;6.61;79.48;96043.46;105133;1303;25120;-77
2022/11/04 03:20:18;;;;;;;10.20;6.10;;;;;;;6.63;79.72;96035.94;105360;1303;22468;-77
2022/11/04 03:22:49;;;;;;;8.60;5.30;;;;;;;6.71;79.77;96037.96;105359;1294;25450;-77
2022/11/04 03:25:22;;;;;;;10.10;6.20;;;;;;;6.76;79.72;96040.38;105380;1303;22601;-77
2022/11/04 03:28:01;;;;;;;11.00;6.40;;;;;;;6.78;79.72;96048.17;105294;1303;22682;-77
2022/11/04 03:30:39;;;;;;;10.00;6.10;;;;;;;6.82;79.66;96047.85;105347;1295;25447;-77
2022/11/04 03:33:18;;;;;;;10.00;6.50;;;;;;;6.86;79.81;96049.19;105394;1303;22455;-78
2022/11/04 03:35:49;;;;;;;9.50;6.80;;;;;;;6.90;79.67;96045.93;105322;1289;22464;-77
2022/11/04 03:38:22;;;;;;;11.50;7.40;;;;;;;6.93;79.76;96047.82;105281;1288;24964;-77
2022/11/04 03:40:56;;;;;;;9.50;6.40;;;;;;;6.92;79.61;96045.67;105350;1303;22565;-77
2022/11/04 03:43:29;;;;;;;10.30;6.40;;;;;;;6.92;79.76;96038.70;105324;1290;22528;-77
2022/11/04 03:46:00;;;;;;;8.90;6.30;;;;;;;6.96;79.50;96042.05;105327;1303;26685;-77
2022/11/04 03:48:31;;;;;;;10.20;6.70;;;;;;;6.98;79.45;96042.36;105225;1300;25322;-77
2022/11/04 03:51:03;;;;;;;9.40;6.40;;;;;;;6.95;79.37;96044.55;105285;1303;22480;-77
2022/11/04 03:53:37;;;;;;;10.00;6.40;;;;;;;6.93;79.40;96039.45;105271;1303;22482;-77
2022/11/04 03:56:25;;;;;;;9.90;6.40;;;;;;;6.95;79.40;96026.98;105248;1303;22452;-77
2022/11/04 03:59:09;;;;;;;11.60;7.50;;;;;;;6.97;79.19;96025.56;105151;1303;22462;-78
2022/11/04 04:01:49;;;;;;;10.20;6.40;;;;;;;6.95;79.18;96024.20;105185;1292;22476;-77
2022/11/04 04:04:29;;;;;;;11.60;6.80;;;;;;;6.88;79.03;96018.52;105142;1303;22482;-78
2022/11/04 04:07:06;;;;;;;8.10;6.10;;;;;;;6.83;78.99;96018.49;105164;1295;22471;-78
2022/11/04 04:09:42;;;;;;;10.90;6.80;;;;;;;6.80;79.09;96014.83;105172;1297;24683;-78
2022/11/04 04:12:22;;;;;;;10.10;6.70;;;;;;;6.70;79.18;96007.52;105178;1291;22474;-77
2022/11/04 04:15:03;;;;;;;9.40;6.10;;;;;;;6.63;79.27;96000.86;105170;1294;24480;-78
2022/11/04 04:17:37;;;;;;;7.70;5.70;;;;;;;6.61;79.30;95996.69;105124;1296;22537;-78
2022/11/04 04:20:13;;;;;;;8.60;6.00;;;;;;;6.59;79.43;95994.16;105203;1291;25465;-78
2022/11/04 04:22:49;;;;;;;8.60;5.80;;;;;;;6.61;79.39;96000.64;105189;1298;25233;-78
2022/11/04 04:28:16;;;;;;;10.10;6.50;;;;;;;6.53;79.64;95990.77;105200;1295;22459;-77
2022/11/04 04:30:48;;;;;;;8.50;5.90;;;;;;;6.55;79.70;95985.91;105322;1303;25756;-78
2022/11/04 04:33:20;;;;;;;8.20;5.50;;;;;;;6.57;79.97;95983.52;105324;1288;22470;-77
2022/11/04 04:35:56;;;;;;;7.80;5.90;;;;;;;6.60;79.89;95985.20;105319;1288;22512;-78
2022/11/04 04:47:09;;;;;;;9.40;5.50;;;;;;;6.42;79.08;95968.46;105268;1280;22487;-78
2022/11/04 04:49:51;;;;;;;7.60;5.00;;;;;;;6.21;79.32;95955.81;105183;1303;22467;-78
2022/11/04 04:52:26;;;;;;;7.90;5.20;;;;;;;6.10;79.45;95950.78;105232;1291;25309;-78
2022/11/04 04:54:57;;;;;;;8.00;5.00;;;;;;;6.06;79.71;95950.00;105145;1290;22520;-78
2022/11/04 04:57:28;;;;;;;6.50;4.90;;;;;;;6.08;79.91;95945.00;105125;1282;22457;-77
2022/11/04 05:00:00;;;;;;;7.50;4.90;;;;;;;6.13;79.92;95937.88;105169;1291;22483;-77
2022/11/04 05:02:33;;;;;;;9.30;5.60;;;;;;;6.12;79.92;95930.19;105221;1279;22940;-78
2022/11/04 05:05:05;;;;;;;8.50;5.40;;;;;;;6.08;80.09;95928.10;105186;1281;22459;-78
2022/11/04 05:07:36;;;;;;;9.50;5.70;;;;;;;6.05;80.10;95922.68;105145;1298;27445;-78
2022/11/04 05:10:10;;;;;;;10.00;5.20;;;;;;;5.95;80.32;95917.49;105319;1286;24333;-78
2022/11/04 05:15:34;;;;;;;8.30;5.20;;;;;;;5.83;80.97;95906.42;105356;1282;25307;-77
2022/11/04 05:18:05;;;;;;;7.80;5.80;;;;;;;5.83;81.54;95904.48;105283;1303;22521;-77
2022/11/04 05:20:39;;;;;;;8.50;4.80;;;;;;;5.83;81.53;95901.06;105342;1294;22474;-77
2022/11/04 05:23:12;;;;;;;8.50;4.90;;;;;;;5.82;81.81;95906.27;105314;1286;25457;-77
2022/11/04 05:25:46;;;;;;;8.20;4.60;;;;;;;5.88;82.24;95906.05;105354;1301;25408;-77
2022/11/04 05:28:17;;;;;;;7.20;4.90;;;;;;;5.97;82.41;95905.06;105306;1303;22465;-77
2022/11/04 05:30:48;;;;;;;7.40;4.90;;;;;;;6.10;82.29;95905.36;105295;1282;24108;-77
2022/11/04 05:33:19;;;;;;;7.00;4.20;;;;;;;6.15;82.05;95903.98;105347;1289;25212;-77
2022/11/04 05:35:51;;;;;;;8.20;4.80;;;;;;;6.14;81.95;95907.66;105367;1302;22650;-77
2022/11/04 05:38:25;;;;;;;6.30;4.00;;;;;;;6.18;81.83;95913.74;105286;1299;22470;-77
2022/11/04 05:40:57;;;;;;;7.60;4.60;;;;;;;6.14;81.76;95908.08;105342;1303;24229;-77
2022/11/04 05:43:30;;;;;;;7.40;4.30;;;;;;;6.08;81.81;95911.95;105324;1288;22523;-77
2022/11/04 05:46:01;;;;;;;5.90;3.50;;;;;;;6.10;81.96;95916.15;105325;1295;22489;-77
2022/11/04 05:48:36;;;;;;;7.20;4.70;;;;;;;6.08;81.95;95919.21;105267;1295;22563;-77
2022/11/04 05:51:07;;;;;;;6.70;4.40;;;;;;;6.04;82.26;95923.46;105348;1303;23359;-77
2022/11/04 05:53:38;;;;;;;7.80;5.10;;;;;;;6.08;82.37;95921.79;105310;1278;22533;-77
2022/11/04 05:56:10;;;;;;;7.60;5.00;;;;;;;6.19;82.26;95926.97;105316;1303;22459;-77
2022/11/04 05:58:42;;;;;;;8.60;4.60;;;;;;;6.29;82.10;95926.20;105308;1280;24617;-77
2022/11/04 06:01:27;;;;;;;7.30;4.60;;;;;;;6.37;81.89;95925.73;105357;1294;22463;-77
2022/11/04 06:03:59;;;;;;;7.70;4.50;;;;;;;6.44;81.74;95927.27;105398;1288;25360;-78
2022/11/04 06:06:37;;;;;;;9.10;5.10;;;;;;;6.45;81.63;95931.21;105328;1295;22468;-77
2022/11/04 06:09:09;;;;;;;7.00;4.40;;;;;;;6.49;81.64;95925.21;105285;1297;25309;-77
2022/11/04 06:11:40;;;;;;;9.50;5.00;;;;;;;6.47;81.45;95931.63;105347;1302;22530;-77
2022/11/04 06:14:12;;;;;;;8.80;5.00;;;;;;;6.37;81.77;95930.30;105352;1303;22533;-77
2022/11/04 06:16:44;;;;;;;10.10;5.70;;;;;;;6.31;82.16;95929.41;105276;1303;22660;-77
2022/11/04 06:19:15;;;;;;;11.20;5.30;;;;;;;6.33;82.44;95931.99;105298;1302;24409;-77
2022/11/04 06:21:46;;;;;;;8.10;4.70;;;;;;;6.36;82.42;95936.05;105334;1302;23387;-77
2022/11/04 06:24:17;;;;;;;7.40;4.40;;;;;;;6.38;82.55;95941.20;105315;1303;22624;-77
2022/11/04 06:26:49;;;;;;;6.80;4.30;;;;;;;6.38;82.48;95944.41;105352;1303;22446;-77
2022/11/04 06:29:20;;;;;;;7.90;4.90;;;;;;;6.40;82.38;95943.50;105324;1292;22481;-77
2022/11/04 06:31:51;;;;;;;7.10;4.20;;;;;;;6.47;82.33;95942.22;105337;1289;22460;-77
2022/11/04 06:34:23;;;;;;;10.70;5.90;;;;;;;6.57;82.06;95944.61;105290;1302;22487;-78
2022/11/04 06:36:54;;;;;;;9.30;5.80;;;;;;;6.70;82.07;95948.63;105383;1303;22477;-78
2022/11/04 06:39:25;;;;;;;8.30;5.50;;;;;;;6.85;81.71;95953.09;105307;1303;22475;-77
2022/11/04 06:41:57;;;;;;;8.60;5.80;;;;;;;6.96;81.30;95950.67;105309;1295;22463;-77
2022/11/04 06:44:32;;;;;;;8.50;6.00;;;;;;;7.10;81.04;95951.71;105353;1295;22468;-78
2022/11/04 06:47:04;;;;;;;8.70;5.20;;;;;;;7.24;80.56;95950.84;105388;1302;22463;-78
2022/11/04 06:49:35;;;;;;;7.00;5.00;;;;;;;7.34;80.40;95945.52;105219;1295;22467;-77
2022/11/04 06:52:07;;;;;;;9.40;5.00;;;;;;;7.39;79.97;95941.73;105169;1303;22466;-78
2022/11/04 06:54:41;;;;;;;8.20;5.40;;;;;;;7.42;79.82;95937.97;105184;1303;24252;-77
2022/11/04 06:57:13;;;;;;;8.00;5.50;;;;;;;7.51;79.46;95939.55;105177;1289;22594;-77
2022/11/04 06:59:44;;;;;;;8.20;4.70;;;;;;;7.60;79.29;95938.01;105393;1297;22990;-78
2022/11/04 07:02:15;;;;;;;6.70;4.90;;;;;;;7.68;79.01;95934.77;105340;1303;23127;-77
2022/11/04 07:04:47;;;;;;;8.60;5.50;;;;;;;7.84;78.79;95939.14;105359;1280;22451;-77
2022/11/04 07:07:18;;;;;;;7.30;4.90;;;;;;;8.02;78.51;95933.76;105289;1303;24306;-78
2022/11/04 07:09:50;;;;;;;7.90;4.60;;;;;;;8.24;78.31;95928.06;105350;1302;22470;-78
2022/11/04 07:12:22;;;;;;;8.60;5.30;;;;;;;8.53;77.88;95925.66;105346;1288;23136;-78
2022/11/04 07:14:55;;;;;;;7.60;4.60;;;;;;;8.92;77.36;95921.40;105365;1302;22520;-78
2022/11/04 07:17:28;;;;;;;7.40;5.20;;;;;;;8.95;76.41;95920.35;105275;1295;22485;-78
2022/11/04 07:20:00;;;;;;;7.90;5.20;;;;;;;8.85;76.02;95920.63;105197;1289;22471;-78
2022/11/04 07:22:31;;;;;;;8.30;5.10;;;;;;;8.79;75.86;95916.07;105173;1295;24283;-78
2022/11/04 07:25:02;;;;;;;7.20;4.90;;;;;;;8.84;75.90;95911.93;105191;1303;22467;-78
2022/11/04 07:27:33;;;;;;;10.40;5.20;;;;;;;8.93;75.79;95906.79;105112;1289;24251;-78
2022/11/04 07:30:06;;;;;;;8.20;5.50;;;;;;;9.10;75.62;95906.25;105190;1303;23006;-78
2022/11/04 07:32:37;;;;;;;7.40;5.20;;;;;;;9.23;75.08;95901.84;105236;1296;22468;-78
2022/11/04 07:35:09;;;;;;;7.10;4.70;;;;;;;9.74;75.05;95894.02;105172;1302;22473;-78
2022/11/04 07:37:41;;;;;;;7.80;5.30;;;;;;;10.72;74.80;95898.56;105185;1303;24439;-78
2022/11/04 07:40:13;;;;;;;7.00;4.90;;;;;;;11.86;73.65;95896.52;105361;1288;22506;-78
2022/11/04 07:42:44;;;;;;;8.30;4.70;;;;;;;12.70;71.70;95890.45;105395;1302;24247;-79
2022/11/04 07:45:16;;;;;;;8.00;5.40;;;;;;;13.39;70.06;95885.46;105354;1281;22476;-79
2022/11/04 07:47:47;;;;;;;8.00;4.40;;;;;;;14.05;68.57;95880.47;105358;1302;25699;-79
2022/11/04 07:50:18;;;;;;;6.70;4.70;;;;;;;14.57;66.15;95871.77;105282;1302;22549;-79
2022/11/04 07:52:50;;;;;;;6.50;4.40;;;;;;;15.06;64.81;95871.45;105371;1303;22490;-80
2022/11/04 07:55:21;;;;;;;8.40;5.00;;;;;;;15.60;63.67;95870.00;105365;1300;22465;-79
2022/11/04 07:57:54;;;;;;;6.00;4.70;;;;;;;16.09;63.38;95866.11;105346;1281;22474;-79
2022/11/04 08:00:25;;;;;;;7.00;5.10;;;;;;;16.62;62.12;95871.07;105336;1302;22460;-80
2022/11/04 08:02:56;;;;;;;7.30;5.50;;;;;;;17.00;61.32;95871.71;105368;1302;26015;-80
2022/11/04 08:05:27;;;;;;;7.30;5.00;;;;;;;17.28;58.71;95869.30;105381;1303;22465;-80
2022/11/04 08:07:59;;;;;;;11.70;5.40;;;;;;;17.27;58.35;95865.38;105314;1285;22514;-79
2022/11/04 08:10:30;;;;;;;7.80;5.10;;;;;;;16.99;55.77;95864.73;105413;1294;24227;-80
2022/11/04 08:13:01;;;;;;;9.20;5.50;;;;;;;16.38;55.77;95859.27;105359;1294;25251;-79
2022/11/04 08:15:32;;;;;;;8.50;4.80;;;;;;;16.38;57.31;95859.14;105395;1289;22464;-80
2022/11/04 08:18:04;;;;;;;8.90;5.20;;;;;;;16.68;56.68;95850.66;105292;1303;22480;-79
2022/11/04 08:20:35;;;;;;;8.60;5.10;;;;;;;16.69;55.74;95849.73;105379;1288;22474;-79
2022/11/04 08:23:06;;;;;;;7.80;5.10;;;;;;;15.94;53.96;95846.73;105339;1286;22455;-80
2022/11/04 08:25:37;;;;;;;6.80;5.10;;;;;;;15.27;56.37;95858.26;105370;1288;24920;-80
2022/11/04 08:28:11;;;;;;;8.20;4.80;;;;;;;15.48;57.66;95854.84;105317;1303;25482;-80
2022/11/04 08:30:42;;;;;;;8.50;5.10;;;;;;;15.65;57.69;95844.70;105338;1279;25311;-80
2022/11/04 08:33:14;;;;;;;6.90;4.70;;;;;;;15.75;57.30;95842.05;105319;1302;22572;-81
2022/11/04 08:35:45;;;;;;;7.20;4.80;;;;;;;15.59;55.53;95833.61;105327;1287;22675;-81
2022/11/04 08:38:16;;;;;;;7.80;5.10;;;;;;;15.15;55.66;95830.73;105297;1292;23182;-81
2022/11/04 08:40:47;;;;;;;8.40;5.20;;;;;;;14.73;55.62;95824.75;105361;1295;22470;-81
2022/11/04 08:43:21;;;;;;;10.20;5.30;;;;;;;14.32;56.43;95823.46;105353;1303;22538;-81
2022/11/04 08:45:52;;;;;;;7.80;5.10;;;;;;;14.07;57.28;95815.44;105337;1286;22464;-81
2022/11/04 08:48:24;;;;;;;8.40;5.00;;;;;;;14.04;58.02;95815.94;105262;1301;23841;-80
2022/11/04 08:50:58;;;;;;;8.10;4.90;;;;;;;14.14;58.83;95812.59;105388;1288;22475;-80
2022/11/04 08:53:30;;;;;;;9.30;4.90;;;;;;;14.34;58.76;95817.73;105374;1303;24387;-80
2022/11/04 08:56:08;;;;;;;7.60;4.40;;;;;;;14.45;58.29;95813.38;105384;1285;22473;-80
2022/11/04 08:58:40;;;;;;;10.00;4.90;;;;;;;14.37;58.25;95816.95;105272;1286;29638;-81
2022/11/04 09:01:11;;;;;;;8.10;5.20;;;;;;;14.37;58.39;95818.87;105355;1279;22458;-81
2022/11/04 09:03:43;;;;;;;8.00;5.00;;;;;;;14.35;58.30;95811.68;105362;1280;22458;-81
2022/11/04 09:06:18;;;;;;;8.10;5.20;;;;;;;14.44;59.12;95810.14;105256;1303;23029;-79
2022/11/04 09:08:49;;;;;;;9.50;5.30;;;;;;;14.55;58.38;95813.11;105159;1303;24249;-81
2022/11/04 09:11:21;;;;;;;7.00;4.70;;;;;;;14.53;58.41;95808.86;105175;1303;25311;-81
2022/11/04 09:13:52;;;;;;;6.80;4.50;;;;;;;14.60;58.25;95809.02;105173;1295;22471;-81
2022/11/04 09:16:23;;;;;;;7.10;4.40;;;;;;;14.64;58.09;95808.70;105152;1283;22477;-81
2022/11/04 09:18:56;;;;;;;8.20;4.50;;;;;;;14.77;58.41;95809.74;105192;1282;27103;-81
2022/11/04 09:21:28;;;;;;;7.40;4.40;;;;;;;15.00;58.63;95804.66;105220;1301;22465;-81
2022/11/04 09:24:00;;;;;;;7.50;4.80;;;;;;;15.27;58.89;95802.02;105199;1289;22471;-81
2022/11/04 09:26:31;;;;;;;9.00;5.10;;;;;;;15.36;58.11;95797.23;105155;1282;23867;-81
2022/11/04 09:29:08;;;;;;;8.00;5.00;;;;;;;15.21;57.74;95793.74;105123;1297;22472;-81
2022/11/04 09:31:41;;;;;;;7.50;4.60;;;;;;;15.09;57.89;95791.65;105153;1288;23500;-81
2022/11/04 09:34:12;;;;;;;7.20;4.80;;;;;;;15.14;57.96;95790.45;105182;1303;22478;-81
2022/11/04 09:36:44;;;;;;;6.70;4.40;;;;;;;15.09;58.49;95789.96;105173;1287;22469;-81
2022/11/04 09:39:17;;;;;;;6.90;4.30;;;;;;;15.16;57.92;95785.24;105158;1295;22465;-81
2022/11/04 09:42:03;;;;;;;8.70;4.80;;;;;;;15.28;58.28;95779.34;105178;1303;22478;-81
2022/11/04 09:44:48;;;;;;;8.40;4.60;;;;;;;15.37;58.16;95767.84;105201;1303;22466;-81
2022/11/04 09:47:22;;;;;;;8.40;5.00;;;;;;;15.56;58.39;95766.41;105138;1303;25511;-81
2022/11/04 09:49:57;;;;;;;7.50;4.80;;;;;;;15.78;58.79;95763.42;105286;1289;26597;-81
2022/11/04 09:52:33;;;;;;;5.90;4.40;;;;;;;16.04;58.95;95758.02;105360;1303;24254;-81
2022/11/04 09:55:12;;;;;;;6.80;4.50;;;;;;;16.32;58.16;95752.41;105298;1295;22588;-81
2022/11/04 09:57:44;;;;;;;8.60;4.90;;;;;;;16.29;57.37;95751.77;105272;1303;25671;-81
2022/11/04 10:00:19;;;;;;;6.50;4.80;;;;;;;16.24;57.07;95749.34;105273;1288;22472;-81
2022/11/04 10:03:03;;;;;;;8.20;4.80;;;;;;;16.37;58.03;95749.88;105190;1297;22485;-81
2022/11/04 10:05:48;;;;;;;7.50;5.10;;;;;;;16.62;57.85;95750.10;105233;1298;22470;-81
2022/11/04 10:08:42;;;;;;;7.90;5.20;;;;;;;16.76;57.25;95753.77;105165;1288;22471;-82
2022/11/04 10:11:20;;;;;;;10.00;5.50;;;;;;;16.69;56.70;95752.86;105188;1294;24282;-81
2022/11/04 10:14:09;;;;;;;8.40;5.00;;;;;;;16.64;56.45;95750.33;105210;1303;22462;-82
2022/11/04 10:16:56;;;;;;;9.90;5.40;;;;;;;16.63;55.92;95737.13;105194;1303;24529;-82
2022/11/04 10:19:41;;;;;;;9.10;5.60;;;;;;;16.61;56.23;95730.56;105119;1303;22459;-82
2022/11/04 10:22:23;;;;;;;8.90;6.00;;;;;;;16.71;56.32;95727.58;105186;1303;22535;-79
2022/11/04 10:25:06;;;;;;;9.90;6.00;;;;;;;16.80;55.99;95728.45;105176;1295;25211;-81
2022/11/04 10:27:41;;;;;;;9.20;5.50;;;;;;;16.93;56.65;95724.85;105130;1295;22533;-81
2022/11/04 10:30:19;;;;;;;7.60;5.50;;;;;;;17.18;56.33;95723.70;105150;1295;22459;-81
2022/11/04 10:33:00;;;;;;;8.90;5.70;;;;;;;17.33;56.18;95723.79;105158;1303;24335;-81
2022/11/04 10:35:35;;;;;;;7.50;4.80;;;;;;;17.42;55.37;95723.64;105187;1295;24435;-81
2022/11/04 10:38:30;;;;;;;7.60;4.70;;;;;;;17.37;55.01;95722.69;105122;1303;26043;-81
2022/11/04 10:41:02;;;;;;;5.40;3.90;;;;;;;17.40;54.77;95716.87;105166;1295;25338;-81
2022/11/04 10:43:37;;;;;;;8.00;4.80;;;;;;;17.33;54.03;95715.01;105203;1295;22468;-81
2022/11/04 10:46:30;;;;;;;7.40;4.60;;;;;;;17.22;54.23;95712.04;105196;1303;24308;-81
2022/11/04 10:49:12;;;;;;;7.30;4.60;;;;;;;17.17;54.16;95705.48;105212;1303;22461;-81
2022/11/04 10:51:44;;;;;;;8.00;5.00;;;;;;;17.19;54.01;95706.82;105199;1289;22504;-81
2022/11/04 10:54:16;;;;;;;7.00;4.70;;;;;;;17.08;53.70;95709.36;105208;1303;24260;-81
2022/11/04 10:56:50;;;;;;;6.80;4.70;;;;;;;17.05;53.67;95710.13;105198;1303;22522;-81
2022/11/04 10:59:26;;;;;;;5.60;4.30;;;;;;;17.02;53.63;95712.80;105133;1295;24193;-81
2022/11/04 11:01:58;;;;;;;6.30;4.30;;;;;;;16.97;53.99;95713.64;105167;1291;22938;-81
2022/11/04 11:04:33;;;;;;;7.40;4.30;;;;;;;17.00;54.10;95707.70;105164;1303;22593;-81
2022/11/04 11:07:06;;;;;;;7.70;4.80;;;;;;;16.97;53.32;95711.58;105186;1295;24228;-81
2022/11/04 11:09:44;;;;;;;8.60;4.80;;;;;;;16.82;52.88;95710.09;105202;1292;22461;-81
2022/11/04 11:12:29;;;;;;;7.80;4.30;;;;;;;16.70;52.76;95708.91;105148;1288;25366;-81
2022/11/04 11:15:00;;;;;;;8.30;5.00;;;;;;;16.61;52.62;95703.11;105159;1297;23144;-81
2022/11/04 11:17:42;;;;;;;6.20;4.50;;;;;;;16.59;52.83;95703.52;105081;1304;28577;-81
2022/11/04 11:20:23;;;;;;;8.10;4.80;;;;;;;16.62;53.05;95699.70;105190;1294;23776;-81
2022/11/04 11:22:55;;;;;;;6.90;4.40;;;;;;;16.69;53.31;95697.16;105162;1295;24317;-81
2022/11/04 11:25:29;;;;;;;10.10;5.10;;;;;;;16.67;52.80;95700.09;105177;1285;22522;-81
2022/11/04 11:28:03;;;;;;;8.40;5.20;;;;;;;16.60;52.83;95702.87;105137;1303;28498;-81
2022/11/04 11:30:40;;;;;;;8.40;5.00;;;;;;;16.49;52.34;95696.52;105202;1303;22469;-81
2022/11/04 11:33:20;;;;;;;9.70;5.00;;;;;;;16.43;52.58;95694.34;105208;1303;22463;-81
2022/11/04 11:35:53;;;;;;;10.70;5.80;;;;;;;16.37;52.80;95688.28;105178;1300;22476;-81
2022/11/04 11:38:27;;;;;;;7.40;4.50;;;;;;;16.36;53.08;95685.97;105139;1287;22445;-80
2022/11/04 11:41:08;;;;;;;8.10;4.90;;;;;;;16.40;53.35;95681.09;105231;1298;24338;-81
2022/11/04 11:43:43;;;;;;;6.60;4.70;;;;;;;16.38;52.95;95683.66;105191;1297;22513;-81
2022/11/04 11:46:21;;;;;;;10.00;5.00;;;;;;;16.33;53.17;95676.79;105168;1298;22461;-80
2022/11/04 11:48:59;;;;;;;9.20;4.90;;;;;;;16.35;53.54;95675.23;105128;1303;24282;-80
2022/11/04 11:51:33;;;;;;;8.40;4.80;;;;;;;16.41;54.04;95673.02;105143;1303;22463;-80
2022/11/04 11:54:22;;;;;;;7.30;4.80;;;;;;;16.44;53.28;95671.88;105177;1295;22529;-80
2022/11/04 11:56:58;;;;;;;9.50;6.00;;;;;;;16.46;53.68;95670.41;105170;1294;24289;-80
2022/11/04 11:59:38;;;;;;;7.70;5.10;;;;;;;16.57;53.84;95667.45;105090;1303;27007;-79
2022/11/04 12:02:25;;;;;;;10.80;7.00;;;;;;;16.75;53.92;95664.45;105185;1291;25223;-80
2022/11/04 12:04:56;;;;;;;13.10;7.70;;;;;;;16.78;53.71;95660.05;105194;1288;25342;-80
2022/11/04 12:07:37;;;;;;;12.70;6.60;;;;;;;16.87;54.27;95657.00;105150;1287;23647;-79
2022/11/04 12:10:19;;;;;;;13.40;7.80;;;;;;;17.09;54.46;95660.33;105186;1303;22489;-80
2022/11/04 12:13:01;;;;;;;7.50;5.10;;;;;;;17.25;53.75;95662.66;105174;1303;22489;-80
2022/11/04 12:15:52;;;;;;;9.20;5.40;;;;;;;17.22;53.66;95660.29;105211;1289;22494;-80
2022/11/04 12:18:42;;;;;;;8.60;5.80;;;;;;;17.28;53.66;95652.40;105171;1303;22943;-80
2022/11/04 12:21:18;;;;;;;7.60;5.00;;;;;;;17.22;53.53;95655.71;105194;1303;22493;-79
2022/11/04 12:24:00;;;;;;;7.90;5.20;;;;;;;17.13;53.18;95659.99;105184;1298;22461;-80
2022/11/04 12:26:44;;;;;;;8.10;5.30;;;;;;;17.08;53.52;95662.30;105189;1289;24426;-80
2022/11/04 12:29:30;;;;;;;9.00;5.70;;;;;;;17.05;53.66;95661.02;105143;1289;24474;-80
2022/11/04 12:32:10;;;;;;;9.40;6.20;;;;;;;17.06;54.27;95655.98;105151;1303;22488;-80
2022/11/04 12:34:53;;;;;;;;;;;;;;;17.13;54.84;95658.14;105229;1295;24360;-80